CheckWX is a tool to help pilots better visualize weather data.  It is not intended as a substitute for an official pre-flight weather briefing.

08:13:04 UTC

KBTA METAR
Blair Municipal Airport
Blair, Nebraska, USA
Current

18 mins ago

KBTA 220755Z AUTO 04007KT 10SM OVC100 M05/M08 A3027 RMK AO2 T10481083
Observed
Feb-22 @ 07:55 UTC
Wind
  • 040° at 7 KTS
Visibility
10 SM
Flight Rules
VFR
Cloud Levels
  • Overcast at 10,000' AGL
Temperature
-5°C / 23°F
Dewpoint
-8°C / 18°F
Humidity
80%
Altimeter
30.27" Hg
Pressure
1025.02 hPa
Previous

38 mins ago

KBTA 220735Z AUTO 04008KT 10SM OVC100 M05/M08 A3026 RMK AO2 T10471081
Observed
Feb-22 @ 07:35 UTC
Wind
  • 040° at 8 KTS
Visibility
10 SM
Flight Rules
VFR
Cloud Levels
  • Overcast at 10,000' AGL
Temperature
-5°C / 23°F
Dewpoint
-8°C / 18°F
Humidity
80%
Altimeter
30.26" Hg
Pressure
1024.72 hPa
Previous

58 mins ago

KBTA 220715Z AUTO 06008KT 10SM BKN110 M05/M08 A3026 RMK AO2 T10501083
Observed
Feb-22 @ 07:15 UTC
Wind
  • 060° at 8 KTS
Visibility
10 SM
Flight Rules
VFR
Cloud Levels
  • Broken at 11,000' AGL
Temperature
-5°C / 23°F
Dewpoint
-8°C / 18°F
Humidity
80%
Altimeter
30.26" Hg
Pressure
1024.72 hPa